Wilmington, California
Current Conditions -  °F | °C
As of 1:53 PM on Thursday 27 Nov 2014 (Local Time) from KLGB Reporting Station
Clear Clear  
Wind Chill: 90°   Ceiling: Unl
Heat Index: 90°   Visibility: 10mi
Dew Point: 25°   Wind: 0mph
Humidity: 10%   Direction: NA
Pressure: 30"   Gusts: NA
Location:  33.78°N, 118.26°W
Report Text: KLGB 272153Z 00000KT 10SM CLR 32/M04 A3000 RMK AO2 SLP157 T03221039
Loading
Personal Weather Stations






























Interactive Weather Map New forecast layout! Learn more

10-Day Weather Forecast

Advertisements
Track Severe Weather on mobile